createdAt,value
2023-01-26T03:04:54.629Z,92837.63
2023-01-26T03:09:59.144Z,93613.56
2023-01-26T03:15:20.238Z,93613.56
2023-01-26T03:20:42.721Z,93354.91
2023-01-26T03:26:03.531Z,93096.25
2023-01-26T03:31:10.734Z,92837.63
2023-01-26T03:36:16.711Z,93354.91
2023-01-26T03:41:38.198Z,92837.63
2023-01-26T03:46:59.042Z,93096.25
2023-01-26T03:52:21.816Z,92320.41
2023-01-26T03:57:29.791Z,92837.63
2023-01-26T04:02:52.083Z,93096.25
2023-01-26T04:08:20.540Z,93872.25
2023-01-26T04:13:42.730Z,94130.97
2023-01-26T04:19:10.208Z,93613.56
2023-01-26T04:24:17.217Z,94130.97
2023-01-26T04:29:23.933Z,94130.97
2023-01-26T04:34:27.924Z,93872.25
2023-01-26T04:39:33.136Z,94130.97
2023-01-26T04:44:36.776Z,94389.69
2023-01-26T04:49:41.486Z,94389.69
2023-01-26T04:54:46.560Z,94130.97
2023-01-26T04:59:50.657Z,94130.97
2023-01-26T05:04:56.380Z,93872.25
2023-01-26T05:10:02.458Z,94130.97
2023-01-26T05:15:28.561Z,94389.69
2023-01-26T05:20:46.353Z,94389.69
2023-01-26T05:25:56.074Z,94389.69
2023-01-26T05:30:59.990Z,94130.97
2023-01-26T05:36:06.789Z,93872.25
2023-01-26T05:41:12.422Z,93872.25
2023-01-26T05:46:41.750Z,93872.25
2023-01-26T05:51:45.378Z,93613.56
2023-01-26T05:56:53.429Z,93354.91
2023-01-26T06:01:57.340Z,93354.91
2023-01-26T06:07:02.394Z,93096.25
2023-01-26T06:12:18.694Z,92579.03
2023-01-26T06:17:34.122Z,92579.03
2023-01-26T06:22:40.408Z,92320.41
2023-01-26T06:27:45.571Z,92579.03
2023-01-26T06:33:02.581Z,92837.63
2023-01-26T06:38:08.551Z,93096.25
2023-01-26T06:43:13.620Z,92579.03
2023-01-26T06:48:17.417Z,92579.03
2023-01-26T06:53:31.329Z,93096.25
2023-01-26T06:58:54.779Z,92579.03
2023-01-26T07:04:27.687Z,93613.56
2023-01-26T07:09:31.314Z,93096.25
2023-01-26T07:14:36.252Z,93354.91
2023-01-26T07:19:40.125Z,93096.25
2023-01-26T07:24:43.780Z,92579.03
2023-01-26T07:29:48.735Z,93096.25
2023-01-26T07:34:52.302Z,93872.25
2023-01-26T07:39:55.942Z,93872.25
2023-01-26T07:45:00.991Z,94130.97
2023-01-26T07:50:06.089Z,94648.41
2023-01-26T07:55:09.879Z,94648.41
2023-01-26T08:00:16.258Z,93613.56
2023-01-26T08:05:20.057Z,93613.56
2023-01-26T08:10:23.666Z,94130.97
2023-01-26T08:15:28.994Z,93613.56
2023-01-26T08:20:32.836Z,93872.25
2023-01-26T08:25:36.480Z,93872.25
2023-01-26T08:30:41.893Z,93613.56
2023-01-26T08:35:45.632Z,93872.25
2023-01-26T08:40:53.826Z,94389.69
2023-01-26T08:45:59.423Z,93872.25
2023-01-26T08:51:05.133Z,94907.16
2023-01-26T08:56:11.548Z,94130.97
2023-01-26T09:01:17.919Z,93354.91
2023-01-26T09:06:21.597Z,93613.56
2023-01-26T09:11:25.202Z,93872.25
2023-01-26T09:16:30.234Z,93613.56
2023-01-26T09:21:34.055Z,93613.56
2023-01-26T09:26:37.697Z,93872.25
